American Falls, ID (83211)

6:45 PM MDT on July 24, 2016 (GMT -0600)
ARLFRD | | Change Station

Elev 4392 ft 42.95 °N, 112.82 °W | Updated 30 minutes ago

Partly Cloudy
Partly Cloudy
87 °F
Feels Like 83 °F
N
9
Wind Variable Wind from South
Gusts 12.0 mph

Today
High -- | Low -- °F
--% Chance of Precip.
Yesterday
High -- | Low -- °F
Precip. -- in
Pressure 29.95 in
Visibility 10.0 miles
Clouds Few 6000 ft
Heat Index 83 °F
Dew Point 37 °F
Humidity 17%
Rainfall in
Snow Depth Not available.
6:15 AM 9:00 PM
Waning Gibbous, 71% visible
METAR KPIH 242353Z 28008KT 10SM FEW060 32/M04 A3009 RMK AO2 SLP140 T03171039 10322 20250 56015
Pressure 29.95 in
Visibility 10.0 miles
Clouds Few 6000 ft
Heat Index 83 °F
Dew Point 37 °F
Humidity 17%
Rainfall in
Snow Depth Not available.
6:15 AM 9:00 PM
Waning Gibbous, 71% visible
METAR KPIH 242353Z 28008KT 10SM FEW060 32/M04 A3009 RMK AO2 SLP140 T03171039 10322 20250 56015

10-Day Weather Forecast

Almanac

Astronomy

Jul. 24, 2016 Rise Set
Actual Time
Civil Twilight
Nautical Twilight
Astronomical Twilight
Moon
Length of Visible Light
Length of Day
Tomorrow will be .
, % of the Moon is Illuminated

Today's Extremes

State Highs State Lows

Community

WunderPhotos

Upload Photos

1,927,218 photos uploaded!

WunderBlog® & News

Nearby

Air Quality

  Air Quality AQ Index Pollutant
Not available.

Snow Depth

Station Depth Elevation

Earthquake Activity

City Distance Mag. Time & Date
Minimum magnitude displayed is 2.5.

Coastal Water Temperatures

Place Temperature

Stations

Nearby Weather Stations

Station Location Temp. Windchill Dew Point Humidity Wind Precip. Elev Updated Type
                   

Watches & Warnings

There are currently no watches in effect.